PWSweather.com
Personal Weather Stations
Station Observations
KMAWOBUR2
West Side, Woburn, MA 01801

West SideWoburn, MA 01801

Lat: 42.458, Lon: -71.1955

Elevation: 160

Station Type: DAVIS/Vantage Pro2

http://pauland.net

Latest ConditionsUpdated 10:15:06 PM GMT Saturday, Oct 1, 2016
Currently Today's Max Today's Min Today's Average
Temperature 53.8°F12.1°C 56.0°F13.3°C 53.6°F12.0°C 55.0°F12.8°C
Dew Point 53.2°F11.8°C 55.1°F12.8°C 50.9°F10.5°C 54.0°F12.2°C
Winds 1.0 mph E1.6 kmh E 7.0 mph E11.3 kmh E - 0.7 mph 1.1 kmh
Wind Gusts 4.0 mph6.4 kmh 13.0 mph20.9 kmh - -
Humidity 98% 98% 90% 97%
Pressure 30.18 in1022.0 mb 30.35 in1027.8 mb 30.18 in1022.0 mb -
Precipitation - 0.84 in21.3 mm - -
Hour Temp Dew Point Humidity Winds Wind Gusts Pressure Precip Precip Rate Daily Precip Total
10:15 PM 53.8°F12.1°C 53.2°F11.8°C 98% 1.0 mph E1.6 kmh E 4.0 mph6.4 kmh 30.18 in1022.0 mb 0.00 in0.0 mm 0.00 in0.0 mm 0.84 in21.3 mm
10:10 PM 53.6°F12.0°C 53.0°F11.7°C 98% Calm Calm 6.0 mph9.7 kmh 30.18 in1022.0 mb 0.00 in0.0 mm 0.00 in0.0 mm 0.84 in21.3 mm
10:05 PM 53.6°F12.0°C 53.0°F11.7°C 98% Calm Calm 3.0 mph4.8 kmh 30.18 in1022.0 mb 0.00 in0.0 mm 0.00 in0.0 mm 0.84 in21.3 mm
10:00 PM 53.6°F12.0°C 53.0°F11.7°C 98% Calm Calm 5.0 mph8.0 kmh 30.18 in1022.0 mb 0.00 in0.0 mm 0.00 in0.0 mm 0.84 in21.3 mm
09:55 PM 53.8°F12.1°C 53.2°F11.8°C 98% 2.0 mph NW3.2 kmh NW 7.0 mph11.3 kmh 30.18 in1022.0 mb 0.00 in0.0 mm 0.00 in0.0 mm 0.84 in21.3 mm
09:50 PM 53.8°F12.1°C 53.2°F11.8°C 98% 2.0 mph NE3.2 kmh NE 5.0 mph8.0 kmh 30.18 in1022.0 mb 0.00 in0.0 mm 0.00 in0.0 mm 0.84 in21.3 mm
09:45 PM 53.8°F12.1°C 53.2°F11.8°C 98% Calm Calm 9.0 mph14.5 kmh 30.18 in1022.0 mb 0.01 in0.3 mm 0.00 in0.0 mm 0.84 in21.3 mm
09:40 PM 53.8°F12.1°C 53.2°F11.8°C 98% 2.0 mph NW3.2 kmh NW 6.0 mph9.7 kmh 30.18 in1022.0 mb 0.01 in0.3 mm 0.00 in0.0 mm 0.84 in21.3 mm
09:35 PM 53.8°F12.1°C 53.2°F11.8°C 98% Calm Calm 7.0 mph11.3 kmh 30.18 in1022.0 mb 0.01 in0.3 mm 0.00 in0.0 mm 0.84 in21.3 mm
09:30 PM 53.9°F12.2°C 53.3°F11.8°C 98% 5.0 mph SE8.0 kmh SE 5.0 mph8.0 kmh 30.18 in1022.0 mb 0.01 in0.3 mm 0.00 in0.0 mm 0.84 in21.3 mm
09:25 PM 53.9°F12.2°C 53.3°F11.8°C 98% Calm Calm 5.0 mph8.0 kmh 30.18 in1022.0 mb 0.01 in0.3 mm 0.00 in0.0 mm 0.84 in21.3 mm
09:20 PM 53.9°F12.2°C 53.3°F11.8°C 98% Calm Calm 8.0 mph12.9 kmh 30.18 in1022.0 mb 0.01 in0.3 mm 0.00 in0.0 mm 0.84 in21.3 mm
09:15 PM 53.9°F12.2°C 53.3°F11.8°C 98% Calm Calm 10.0 mph16.1 kmh 30.18 in1022.0 mb 0.01 in0.3 mm 0.00 in0.0 mm 0.84 in21.3 mm
09:10 PM 53.9°F12.2°C 53.3°F11.8°C 98% Calm Calm 5.0 mph8.0 kmh 30.19 in1022.4 mb 0.01 in0.3 mm 0.00 in0.0 mm 0.84 in21.3 mm
09:05 PM 54.1°F12.3°C 53.5°F11.9°C 98% Calm Calm 5.0 mph8.0 kmh 30.19 in1022.4 mb 0.01 in0.3 mm 0.00 in0.0 mm 0.84 in21.3 mm
09:00 PM 54.1°F12.3°C 53.5°F11.9°C 98% Calm Calm 8.0 mph12.9 kmh 30.19 in1022.4 mb 0.01 in0.3 mm 0.00 in0.0 mm 0.84 in21.3 mm
08:55 PM 54.1°F12.3°C 53.5°F11.9°C 98% Calm Calm 4.0 mph6.4 kmh 30.19 in1022.4 mb 0.01 in0.3 mm 0.00 in0.0 mm 0.84 in21.3 mm
08:50 PM 53.9°F12.2°C 53.3°F11.8°C 98% 2.0 mph N3.2 kmh N 9.0 mph14.5 kmh 30.19 in1022.4 mb 0.01 in0.3 mm 0.12 in3.0 mm 0.84 in21.3 mm
08:45 PM 53.9°F12.2°C 53.3°F11.8°C 98% Calm Calm 7.0 mph11.3 kmh 30.19 in1022.4 mb 0.00 in0.0 mm 0.00 in0.0 mm 0.83 in21.1 mm
08:40 PM 54.1°F12.3°C 53.5°F11.9°C 98% 1.0 mph E1.6 kmh E 4.0 mph6.4 kmh 30.20 in1022.7 mb 0.00 in0.0 mm 0.00 in0.0 mm 0.83 in21.1 mm
08:35 PM 54.1°F12.3°C 53.5°F11.9°C 98% 3.0 mph NE4.8 kmh NE 3.0 mph4.8 kmh 30.20 in1022.7 mb 0.00 in0.0 mm 0.00 in0.0 mm 0.83 in21.1 mm
08:30 PM 54.1°F12.3°C 53.5°F11.9°C 98% Calm Calm 6.0 mph9.7 kmh 30.20 in1022.7 mb 0.00 in0.0 mm 0.00 in0.0 mm 0.83 in21.1 mm
08:25 PM 54.1°F12.3°C 53.5°F11.9°C 98% 1.0 mph ENE1.6 kmh ENE 7.0 mph11.3 kmh 30.20 in1022.7 mb 0.00 in0.0 mm 0.00 in0.0 mm 0.83 in21.1 mm
08:20 PM 54.1°F12.3°C 53.5°F11.9°C 98% 7.0 mph ENE11.3 kmh ENE 7.0 mph11.3 kmh 30.20 in1022.7 mb 0.00 in0.0 mm 0.00 in0.0 mm 0.83 in21.1 mm
08:15 PM 54.2°F12.3°C 53.6°F12.0°C 98% 2.0 mph E3.2 kmh E 13.0 mph20.9 kmh 30.20 in1022.7 mb 0.00 in0.0 mm 0.00 in0.0 mm 0.83 in21.1 mm
08:10 PM 54.4°F12.4°C 53.8°F12.1°C 98% Calm Calm 8.0 mph12.9 kmh 30.19 in1022.4 mb 0.00 in0.0 mm 0.00 in0.0 mm 0.83 in21.1 mm
08:05 PM 54.7°F12.6°C 54.1°F12.3°C 98% Calm Calm 9.0 mph14.5 kmh 30.19 in1022.4 mb 0.00 in0.0 mm 0.00 in0.0 mm 0.83 in21.1 mm
08:00 PM 54.8°F12.7°C 54.2°F12.3°C 98% 5.0 mph E8.0 kmh E 10.0 mph16.1 kmh 30.19 in1022.4 mb 0.00 in0.0 mm 0.00 in0.0 mm 0.83 in21.1 mm
07:55 PM 55.0°F12.8°C 54.4°F12.4°C 98% 6.0 mph E9.7 kmh E 9.0 mph14.5 kmh 30.20 in1022.7 mb 0.01 in0.3 mm 0.00 in0.0 mm 0.83 in21.1 mm
07:50 PM 55.1°F12.8°C 54.5°F12.5°C 98% 1.0 mph E1.6 kmh E 10.0 mph16.1 kmh 30.20 in1022.7 mb 0.01 in0.3 mm 0.00 in0.0 mm 0.83 in21.1 mm
07:45 PM 55.1°F12.8°C 54.5°F12.5°C 98% 5.0 mph ENE8.0 kmh ENE 10.0 mph16.1 kmh 30.20 in1022.7 mb 0.01 in0.3 mm 0.00 in0.0 mm 0.83 in21.1 mm
07:40 PM 55.3°F12.9°C 54.7°F12.6°C 98% Calm Calm 7.0 mph11.3 kmh 30.19 in1022.4 mb 0.01 in0.3 mm 0.00 in0.0 mm 0.83 in21.1 mm
07:35 PM 55.3°F12.9°C 54.7°F12.6°C 98% 5.0 mph ESE8.0 kmh ESE 8.0 mph12.9 kmh 30.19 in1022.4 mb 0.01 in0.3 mm 0.00 in0.0 mm 0.83 in21.1 mm
07:30 PM 55.4°F13.0°C 54.8°F12.7°C 98% Calm Calm 7.0 mph11.3 kmh 30.19 in1022.4 mb 0.01 in0.3 mm 0.00 in0.0 mm 0.83 in21.1 mm
07:25 PM 55.6°F13.1°C 55.0°F12.8°C 98% 3.0 mph ESE4.8 kmh ESE 7.0 mph11.3 kmh 30.19 in1022.4 mb 0.01 in0.3 mm 0.00 in0.0 mm 0.83 in21.1 mm
07:20 PM 55.6°F13.1°C 55.0°F12.8°C 98% 2.0 mph NE3.2 kmh NE 6.0 mph9.7 kmh 30.19 in1022.4 mb 0.01 in0.3 mm 0.00 in0.0 mm 0.83 in21.1 mm
07:15 PM 55.4°F13.0°C 54.8°F12.7°C 98% Calm Calm 7.0 mph11.3 kmh 30.19 in1022.4 mb 0.01 in0.3 mm 0.00 in0.0 mm 0.83 in21.1 mm
07:10 PM 55.4°F13.0°C 54.8°F12.7°C 98% 2.0 mph E3.2 kmh E 10.0 mph16.1 kmh 30.19 in1022.4 mb 0.01 in0.3 mm 0.00 in0.0 mm 0.83 in21.1 mm
07:05 PM 55.6°F13.1°C 55.0°F12.8°C 98% 2.0 mph ENE3.2 kmh ENE 10.0 mph16.1 kmh 30.19 in1022.4 mb 0.01 in0.3 mm 0.00 in0.0 mm 0.83 in21.1 mm
07:00 PM 55.7°F13.2°C 55.1°F12.8°C 98% Calm Calm 5.0 mph8.0 kmh 30.19 in1022.4 mb 0.02 in0.5 mm 0.01 in0.3 mm 0.83 in21.1 mm
06:55 PM 55.7°F13.2°C 55.1°F12.8°C 98% Calm Calm 8.0 mph12.9 kmh 30.19 in1022.4 mb 0.01 in0.3 mm 0.00 in0.0 mm 0.82 in20.8 mm
06:50 PM 55.6°F13.1°C 55.0°F12.8°C 98% 2.0 mph E3.2 kmh E 5.0 mph8.0 kmh 30.19 in1022.4 mb 0.01 in0.3 mm 0.00 in0.0 mm 0.82 in20.8 mm
06:45 PM 55.6°F13.1°C 55.0°F12.8°C 98% Calm Calm 7.0 mph11.3 kmh 30.19 in1022.4 mb 0.02 in0.5 mm 0.00 in0.0 mm 0.82 in20.8 mm
06:40 PM 55.4°F13.0°C 54.8°F12.7°C 98% 5.0 mph E8.0 kmh E 8.0 mph12.9 kmh 30.20 in1022.7 mb 0.02 in0.5 mm 0.00 in0.0 mm 0.82 in20.8 mm
06:35 PM 55.3°F12.9°C 54.7°F12.6°C 98% 2.0 mph E3.2 kmh E 3.0 mph4.8 kmh 30.20 in1022.7 mb 0.02 in0.5 mm 0.00 in0.0 mm 0.82 in20.8 mm
06:30 PM 55.1°F12.8°C 54.5°F12.5°C 98% Calm Calm 5.0 mph8.0 kmh 30.20 in1022.7 mb 0.02 in0.5 mm 0.00 in0.0 mm 0.82 in20.8 mm
06:25 PM 55.3°F12.9°C 54.7°F12.6°C 98% Calm Calm 2.0 mph3.2 kmh 30.20 in1022.7 mb 0.02 in0.5 mm 0.00 in0.0 mm 0.82 in20.8 mm
06:20 PM 55.3°F12.9°C 54.7°F12.6°C 98% Calm Calm 2.0 mph3.2 kmh 30.20 in1022.7 mb 0.02 in0.5 mm 0.00 in0.0 mm 0.82 in20.8 mm
06:15 PM 55.3°F12.9°C 54.7°F12.6°C 98% Calm Calm 3.0 mph4.8 kmh 30.20 in1022.7 mb 0.02 in0.5 mm 0.00 in0.0 mm 0.82 in20.8 mm
06:10 PM 55.3°F12.9°C 54.7°F12.6°C 98% 2.0 mph NE3.2 kmh NE 4.0 mph6.4 kmh 30.20 in1022.7 mb 0.02 in0.5 mm 0.00 in0.0 mm 0.82 in20.8 mm
06:05 PM 55.3°F12.9°C 54.7°F12.6°C 98% Calm Calm 5.0 mph8.0 kmh 30.20 in1022.7 mb 0.03 in0.8 mm 0.12 in3.0 mm 0.82 in20.8 mm
06:00 PM 55.3°F12.9°C 54.7°F12.6°C 98% Calm Calm 1.0 mph1.6 kmh 30.20 in1022.7 mb 0.02 in0.5 mm 0.00 in0.0 mm 0.81 in20.6 mm
05:55 PM 55.3°F12.9°C 54.7°F12.6°C 98% Calm Calm 4.0 mph6.4 kmh 30.21 in1023.0 mb 0.02 in0.5 mm 0.00 in0.0 mm 0.81 in20.6 mm
05:50 PM 55.1°F12.8°C 54.5°F12.5°C 98% Calm Calm 4.0 mph6.4 kmh 30.21 in1023.0 mb 0.02 in0.5 mm 0.12 in3.0 mm 0.81 in20.6 mm
05:45 PM 55.1°F12.8°C 54.5°F12.5°C 98% Calm Calm 1.0 mph1.6 kmh 30.21 in1023.0 mb 0.01 in0.3 mm 0.00 in0.0 mm 0.80 in20.3 mm
05:40 PM 55.1°F12.8°C 54.5°F12.5°C 98% 1.0 mph NNE1.6 kmh NNE 4.0 mph6.4 kmh 30.21 in1023.0 mb 0.02 in0.5 mm 0.00 in0.0 mm 0.80 in20.3 mm
05:35 PM 55.1°F12.8°C 54.5°F12.5°C 98% 1.0 mph NNE1.6 kmh NNE 3.0 mph4.8 kmh 30.21 in1023.0 mb 0.02 in0.5 mm 0.00 in0.0 mm 0.80 in20.3 mm
05:30 PM 55.1°F12.8°C 54.5°F12.5°C 98% Calm Calm 4.0 mph6.4 kmh 30.21 in1023.0 mb 0.02 in0.5 mm 0.00 in0.0 mm 0.80 in20.3 mm
05:25 PM 55.0°F12.8°C 54.4°F12.4°C 98% Calm Calm 5.0 mph8.0 kmh 30.22 in1023.4 mb 0.02 in0.5 mm 0.00 in0.0 mm 0.80 in20.3 mm
05:20 PM 55.1°F12.8°C 54.5°F12.5°C 98% Calm Calm 4.0 mph6.4 kmh 30.22 in1023.4 mb 0.02 in0.5 mm 0.00 in0.0 mm 0.80 in20.3 mm
05:15 PM 55.0°F12.8°C 54.4°F12.4°C 98% Calm Calm 6.0 mph9.7 kmh 30.22 in1023.4 mb 0.02 in0.5 mm 0.00 in0.0 mm 0.80 in20.3 mm
05:10 PM 55.1°F12.8°C 54.5°F12.5°C 98% Calm Calm 2.0 mph3.2 kmh 30.22 in1023.4 mb 0.03 in0.8 mm 0.12 in3.0 mm 0.80 in20.3 mm
05:05 PM 55.1°F12.8°C 54.5°F12.5°C 98% Calm Calm 3.0 mph4.8 kmh 30.22 in1023.4 mb 0.02 in0.5 mm 0.00 in0.0 mm 0.79 in20.1 mm
05:00 PM 55.3°F12.9°C 54.7°F12.6°C 98% Calm Calm 3.0 mph4.8 kmh 30.22 in1023.4 mb 0.02 in0.5 mm 0.00 in0.0 mm 0.79 in20.1 mm
04:55 PM 55.3°F12.9°C 54.7°F12.6°C 98% Calm Calm 3.0 mph4.8 kmh 30.22 in1023.4 mb 0.02 in0.5 mm 0.00 in0.0 mm 0.79 in20.1 mm
04:50 PM 55.3°F12.9°C 54.7°F12.6°C 98% Calm Calm 2.0 mph3.2 kmh 30.22 in1023.4 mb 0.03 in0.8 mm 0.00 in0.0 mm 0.79 in20.1 mm
04:45 PM 55.3°F12.9°C 54.7°F12.6°C 98% Calm Calm 8.0 mph12.9 kmh 30.22 in1023.4 mb 0.03 in0.8 mm 0.12 in3.0 mm 0.79 in20.1 mm
04:40 PM 55.1°F12.8°C 54.5°F12.5°C 98% Calm Calm 2.0 mph3.2 kmh 30.23 in1023.7 mb 0.02 in0.5 mm 0.00 in0.0 mm 0.78 in19.8 mm
04:35 PM 55.1°F12.8°C 54.5°F12.5°C 98% Calm Calm 5.0 mph8.0 kmh 30.23 in1023.7 mb 0.02 in0.5 mm 0.00 in0.0 mm 0.78 in19.8 mm
04:30 PM 55.1°F12.8°C 54.5°F12.5°C 98% Calm Calm 2.0 mph3.2 kmh 30.23 in1023.7 mb 0.02 in0.5 mm 0.00 in0.0 mm 0.78 in19.8 mm
04:25 PM 55.1°F12.8°C 54.5°F12.5°C 98% Calm Calm 2.0 mph3.2 kmh 30.23 in1023.7 mb 0.02 in0.5 mm 0.00 in0.0 mm 0.78 in19.8 mm
04:20 PM 55.0°F12.8°C 54.4°F12.4°C 98% 2.0 mph N3.2 kmh N 1.0 mph1.6 kmh 30.23 in1023.7 mb 0.02 in0.5 mm 0.00 in0.0 mm 0.78 in19.8 mm
04:15 PM 55.0°F12.8°C 54.4°F12.4°C 98% Calm Calm 1.0 mph1.6 kmh 30.23 in1023.7 mb 0.02 in0.5 mm 0.00 in0.0 mm 0.78 in19.8 mm
04:10 PM 55.0°F12.8°C 54.4°F12.4°C 98% Calm Calm 3.0 mph4.8 kmh 30.24 in1024.0 mb 0.02 in0.5 mm 0.00 in0.0 mm 0.77 in19.6 mm
04:05 PM 54.8°F12.7°C 54.2°F12.3°C 98% Calm Calm 3.0 mph4.8 kmh 30.24 in1024.0 mb 0.02 in0.5 mm 0.00 in0.0 mm 0.77 in19.6 mm
04:00 PM 54.8°F12.7°C 54.2°F12.3°C 98% Calm Calm 4.0 mph6.4 kmh 30.24 in1024.0 mb 0.02 in0.5 mm 0.00 in0.0 mm 0.77 in19.6 mm
03:55 PM 55.0°F12.8°C 54.4°F12.4°C 98% 3.0 mph NNW4.8 kmh NNW 7.0 mph11.3 kmh 30.24 in1024.0 mb 0.02 in0.5 mm 0.12 in3.0 mm 0.77 in19.6 mm
03:50 PM 55.0°F12.8°C 54.4°F12.4°C 98% Calm Calm 4.0 mph6.4 kmh 30.24 in1024.0 mb 0.01 in0.3 mm 0.00 in0.0 mm 0.76 in19.3 mm
03:45 PM 55.0°F12.8°C 54.4°F12.4°C 98% Calm Calm 4.0 mph6.4 kmh 30.24 in1024.0 mb 0.02 in0.5 mm 0.00 in0.0 mm 0.76 in19.3 mm
03:40 PM 55.1°F12.8°C 54.5°F12.5°C 98% 1.0 mph ENE1.6 kmh ENE 5.0 mph8.0 kmh 30.24 in1024.0 mb 0.02 in0.5 mm 0.00 in0.0 mm 0.76 in19.3 mm
03:35 PM 55.1°F12.8°C 54.5°F12.5°C 98% Calm Calm 5.0 mph8.0 kmh 30.24 in1024.0 mb 0.02 in0.5 mm 0.00 in0.0 mm 0.76 in19.3 mm
03:30 PM 55.1°F12.8°C 54.5°F12.5°C 98% Calm Calm 4.0 mph6.4 kmh 30.24 in1024.0 mb 0.02 in0.5 mm 0.00 in0.0 mm 0.76 in19.3 mm
03:25 PM 55.1°F12.8°C 54.5°F12.5°C 98% Calm Calm 5.0 mph8.0 kmh 30.25 in1024.4 mb 0.02 in0.5 mm 0.00 in0.0 mm 0.76 in19.3 mm
03:20 PM 55.3°F12.9°C 54.7°F12.6°C 98% Calm Calm 4.0 mph6.4 kmh 30.25 in1024.4 mb 0.02 in0.5 mm 0.00 in0.0 mm 0.76 in19.3 mm
03:15 PM 55.3°F12.9°C 54.7°F12.6°C 98% Calm Calm 5.0 mph8.0 kmh 30.25 in1024.4 mb 0.02 in0.5 mm 0.12 in3.0 mm 0.76 in19.3 mm
03:10 PM 55.3°F12.9°C 54.7°F12.6°C 98% 2.0 mph NE3.2 kmh NE 4.0 mph6.4 kmh 30.25 in1024.4 mb 0.01 in0.3 mm 0.00 in0.0 mm 0.75 in19.1 mm
03:05 PM 55.3°F12.9°C 54.7°F12.6°C 98% Calm Calm 5.0 mph8.0 kmh 30.25 in1024.4 mb 0.01 in0.3 mm 0.00 in0.0 mm 0.75 in19.1 mm
03:00 PM 55.3°F12.9°C 54.7°F12.6°C 98% Calm Calm 4.0 mph6.4 kmh 30.25 in1024.4 mb 0.01 in0.3 mm 0.00 in0.0 mm 0.75 in19.1 mm
02:55 PM 55.1°F12.8°C 54.5°F12.5°C 98% Calm Calm 3.0 mph4.8 kmh 30.25 in1024.4 mb 0.01 in0.3 mm 0.00 in0.0 mm 0.75 in19.1 mm
02:50 PM 55.1°F12.8°C 54.5°F12.5°C 98% Calm Calm 6.0 mph9.7 kmh 30.25 in1024.4 mb 0.01 in0.3 mm 0.12 in3.0 mm 0.75 in19.1 mm
02:45 PM 55.1°F12.8°C 54.5°F12.5°C 98% Calm Calm 3.0 mph4.8 kmh 30.25 in1024.4 mb 0.00 in0.0 mm 0.00 in0.0 mm 0.74 in18.8 mm
02:40 PM 55.1°F12.8°C 54.5°F12.5°C 98% Calm Calm 5.0 mph8.0 kmh 30.25 in1024.4 mb 0.01 in0.3 mm 0.00 in0.0 mm 0.74 in18.8 mm
02:35 PM 55.1°F12.8°C 54.5°F12.5°C 98% 1.0 mph NW1.6 kmh NW 4.0 mph6.4 kmh 30.25 in1024.4 mb 0.01 in0.3 mm 0.00 in0.0 mm 0.74 in18.8 mm
02:30 PM 55.3°F12.9°C 54.7°F12.6°C 98% Calm Calm 4.0 mph6.4 kmh 30.25 in1024.4 mb 0.01 in0.3 mm 0.00 in0.0 mm 0.74 in18.8 mm
02:25 PM 55.4°F13.0°C 54.8°F12.7°C 98% Calm Calm 3.0 mph4.8 kmh 30.25 in1024.4 mb 0.02 in0.5 mm 0.00 in0.0 mm 0.74 in18.8 mm
02:20 PM 55.6°F13.1°C 55.0°F12.8°C 98% 1.0 mph WSW1.6 kmh WSW 3.0 mph4.8 kmh 30.25 in1024.4 mb 0.04 in1.0 mm 0.00 in0.0 mm 0.74 in18.8 mm
02:15 PM 55.6°F13.1°C 55.0°F12.8°C 98% Calm Calm 7.0 mph11.3 kmh 30.25 in1024.4 mb 0.06 in1.5 mm 0.00 in0.0 mm 0.74 in18.8 mm
02:10 PM 55.4°F13.0°C 54.8°F12.7°C 98% 3.0 mph E4.8 kmh E 3.0 mph4.8 kmh 30.25 in1024.4 mb 0.10 in2.5 mm 0.00 in0.0 mm 0.74 in18.8 mm
02:05 PM 55.3°F12.9°C 54.7°F12.6°C 98% Calm Calm 3.0 mph4.8 kmh 30.25 in1024.4 mb 0.14 in3.6 mm 0.00 in0.0 mm 0.74 in18.8 mm
02:00 PM 55.3°F12.9°C 54.7°F12.6°C 98% Calm Calm 7.0 mph11.3 kmh 30.25 in1024.4 mb 0.16 in4.1 mm 0.00 in0.0 mm 0.74 in18.8 mm
01:55 PM 55.0°F12.8°C 54.4°F12.4°C 98% Calm Calm 5.0 mph8.0 kmh 30.26 in1024.7 mb 0.20 in5.1 mm 0.00 in0.0 mm 0.74 in18.8 mm
01:50 PM 55.0°F12.8°C 54.4°F12.4°C 98% Calm Calm 2.0 mph3.2 kmh 30.26 in1024.7 mb 0.23 in5.8 mm 0.00 in0.0 mm 0.74 in18.8 mm
01:45 PM 54.8°F12.7°C 54.2°F12.3°C 98% Calm Calm 3.0 mph4.8 kmh 30.26 in1024.7 mb 0.26 in6.6 mm 0.00 in0.0 mm 0.74 in18.8 mm
01:40 PM 54.8°F12.7°C 54.2°F12.3°C 98% Calm Calm 1.0 mph1.6 kmh 30.26 in1024.7 mb 0.26 in6.6 mm 0.00 in0.0 mm 0.73 in18.5 mm
01:35 PM 54.7°F12.6°C 54.1°F12.3°C 98% Calm Calm 3.0 mph4.8 kmh 30.26 in1024.7 mb 0.27 in6.9 mm 0.00 in0.0 mm 0.73 in18.5 mm
01:30 PM 54.5°F12.5°C 53.9°F12.2°C 98% 2.0 mph E3.2 kmh E 6.0 mph9.7 kmh 30.26 in1024.7 mb 0.29 in7.4 mm 0.00 in0.0 mm 0.73 in18.5 mm
01:25 PM 54.5°F12.5°C 53.9°F12.2°C 98% Calm Calm 6.0 mph9.7 kmh 30.27 in1025.1 mb 0.29 in7.4 mm 0.12 in3.0 mm 0.72 in18.3 mm
01:20 PM 54.4°F12.4°C 53.8°F12.1°C 98% Calm Calm 3.0 mph4.8 kmh 30.27 in1025.1 mb 0.28 in7.1 mm 0.12 in3.0 mm 0.70 in17.8 mm
01:15 PM 54.4°F12.4°C 53.8°F12.1°C 98% 1.0 mph NE1.6 kmh NE 5.0 mph8.0 kmh 30.27 in1025.1 mb 0.27 in6.9 mm 0.48 in12.2 mm 0.68 in17.3 mm
01:10 PM 54.4°F12.4°C 53.8°F12.1°C 98% 2.0 mph WNW3.2 kmh WNW 5.0 mph8.0 kmh 30.27 in1025.1 mb 0.23 in5.8 mm 0.48 in12.2 mm 0.64 in16.3 mm
01:05 PM 54.5°F12.5°C 53.9°F12.2°C 98% Calm Calm 5.0 mph8.0 kmh 30.27 in1025.1 mb 0.19 in4.8 mm 0.24 in6.1 mm 0.60 in15.2 mm
01:00 PM 54.5°F12.5°C 53.9°F12.2°C 98% 2.0 mph E3.2 kmh E 5.0 mph8.0 kmh 30.27 in1025.1 mb 0.17 in4.3 mm 0.03 in0.8 mm 0.58 in14.7 mm
12:55 PM 54.7°F12.6°C 54.1°F12.3°C 98% 4.0 mph SE6.4 kmh SE 8.0 mph12.9 kmh 30.26 in1024.7 mb 0.14 in3.6 mm 0.36 in9.1 mm 0.54 in13.7 mm
12:50 PM 54.7°F12.6°C 54.1°F12.3°C 98% 3.0 mph NE4.8 kmh NE 5.0 mph8.0 kmh 30.26 in1024.7 mb 0.11 in2.8 mm 0.36 in9.1 mm 0.51 in13.0 mm
12:45 PM 54.8°F12.7°C 53.9°F12.2°C 97% 3.0 mph E4.8 kmh E 10.0 mph16.1 kmh 30.26 in1024.7 mb 0.08 in2.0 mm 0.00 in0.0 mm 0.48 in12.2 mm
12:40 PM 54.8°F12.7°C 54.2°F12.3°C 98% Calm Calm 8.0 mph12.9 kmh 30.26 in1024.7 mb 0.08 in2.0 mm 0.00 in0.0 mm 0.47 in11.9 mm
12:35 PM 55.0°F12.8°C 54.4°F12.4°C 98% 4.0 mph E6.4 kmh E 8.0 mph12.9 kmh 30.26 in1024.7 mb 0.08 in2.0 mm 0.24 in6.1 mm 0.46 in11.7 mm
12:30 PM 55.0°F12.8°C 54.4°F12.4°C 98% 1.0 mph E1.6 kmh E 7.0 mph11.3 kmh 30.26 in1024.7 mb 0.06 in1.5 mm 0.00 in0.0 mm 0.44 in11.2 mm
12:25 PM 55.0°F12.8°C 54.4°F12.4°C 98% Calm Calm 4.0 mph6.4 kmh 30.26 in1024.7 mb 0.06 in1.5 mm 0.00 in0.0 mm 0.43 in10.9 mm
12:20 PM 55.0°F12.8°C 54.1°F12.3°C 97% Calm Calm 9.0 mph14.5 kmh 30.26 in1024.7 mb 0.06 in1.5 mm 0.00 in0.0 mm 0.42 in10.7 mm
12:15 PM 55.1°F12.8°C 54.5°F12.5°C 98% 2.0 mph E3.2 kmh E 5.0 mph8.0 kmh 30.26 in1024.7 mb 0.06 in1.5 mm 0.00 in0.0 mm 0.41 in10.4 mm
12:10 PM 55.1°F12.8°C 54.5°F12.5°C 98% 2.0 mph NNE3.2 kmh NNE 9.0 mph14.5 kmh 30.26 in1024.7 mb 0.08 in2.0 mm 0.00 in0.0 mm 0.41 in10.4 mm
12:05 PM 55.1°F12.8°C 54.5°F12.5°C 98% 5.0 mph E8.0 kmh E 5.0 mph8.0 kmh 30.26 in1024.7 mb 0.09 in2.3 mm 0.00 in0.0 mm 0.41 in10.4 mm
12:00 PM 55.1°F12.8°C 54.5°F12.5°C 98% 1.0 mph ENE1.6 kmh ENE 7.0 mph11.3 kmh 30.26 in1024.7 mb 0.10 in2.5 mm 0.00 in0.0 mm 0.41 in10.4 mm
11:55 AM 55.1°F12.8°C 54.5°F12.5°C 98% Calm Calm 5.0 mph8.0 kmh 30.26 in1024.7 mb 0.10 in2.5 mm 0.00 in0.0 mm 0.40 in10.2 mm
11:50 AM 55.1°F12.8°C 54.5°F12.5°C 98% Calm Calm 9.0 mph14.5 kmh 30.26 in1024.7 mb 0.11 in2.8 mm 0.00 in0.0 mm 0.40 in10.2 mm
11:45 AM 55.1°F12.8°C 54.2°F12.3°C 97% 1.0 mph NNE1.6 kmh NNE 9.0 mph14.5 kmh 30.26 in1024.7 mb 0.11 in2.8 mm 0.00 in0.0 mm 0.40 in10.2 mm
11:40 AM 55.3°F12.9°C 54.4°F12.4°C 97% Calm Calm 7.0 mph11.3 kmh 30.26 in1024.7 mb 0.11 in2.8 mm 0.12 in3.0 mm 0.39 in9.9 mm
11:35 AM 55.3°F12.9°C 54.4°F12.4°C 97% Calm Calm 5.0 mph8.0 kmh 30.26 in1024.7 mb 0.10 in2.5 mm 0.00 in0.0 mm 0.38 in9.7 mm
11:30 AM 55.3°F12.9°C 54.4°F12.4°C 97% Calm Calm 8.0 mph12.9 kmh 30.26 in1024.7 mb 0.10 in2.5 mm 0.12 in3.0 mm 0.38 in9.7 mm
11:25 AM 55.3°F12.9°C 54.4°F12.4°C 97% 3.0 mph SE4.8 kmh SE 6.0 mph9.7 kmh 30.25 in1024.4 mb 0.09 in2.3 mm 0.00 in0.0 mm 0.37 in9.4 mm
11:20 AM 55.3°F12.9°C 54.4°F12.4°C 97% Calm Calm 6.0 mph9.7 kmh 30.25 in1024.4 mb 0.09 in2.3 mm 0.12 in3.0 mm 0.36 in9.1 mm
11:15 AM 55.4°F13.0°C 54.5°F12.5°C 97% Calm Calm 7.0 mph11.3 kmh 30.25 in1024.4 mb 0.08 in2.0 mm 0.24 in6.1 mm 0.35 in8.9 mm
11:10 AM 55.4°F13.0°C 54.5°F12.5°C 97% Calm Calm 5.0 mph8.0 kmh 30.26 in1024.7 mb 0.06 in1.5 mm 0.12 in3.0 mm 0.33 in8.4 mm
11:05 AM 55.4°F13.0°C 54.5°F12.5°C 97% Calm Calm 4.0 mph6.4 kmh 30.26 in1024.7 mb 0.05 in1.3 mm 0.12 in3.0 mm 0.32 in8.1 mm
11:00 AM 55.4°F13.0°C 54.5°F12.5°C 97% Calm Calm 3.0 mph4.8 kmh 30.26 in1024.7 mb 0.04 in1.0 mm 0.01 in0.3 mm 0.31 in7.9 mm
10:55 AM 55.4°F13.0°C 54.5°F12.5°C 97% Calm Calm 8.0 mph12.9 kmh 30.26 in1024.7 mb 0.03 in0.8 mm 0.12 in3.0 mm 0.30 in7.6 mm
10:50 AM 55.4°F13.0°C 54.5°F12.5°C 97% Calm Calm 4.0 mph6.4 kmh 30.26 in1024.7 mb 0.02 in0.5 mm 0.00 in0.0 mm 0.29 in7.4 mm
10:45 AM 55.6°F13.1°C 54.7°F12.6°C 97% Calm Calm 7.0 mph11.3 kmh 30.26 in1024.7 mb 0.02 in0.5 mm 0.12 in3.0 mm 0.29 in7.4 mm
10:40 AM 55.6°F13.1°C 54.7°F12.6°C 97% Calm Calm 2.0 mph3.2 kmh 30.26 in1024.7 mb 0.01 in0.3 mm 0.00 in0.0 mm 0.28 in7.1 mm
10:35 AM 55.6°F13.1°C 54.7°F12.6°C 97% Calm Calm 2.0 mph3.2 kmh 30.26 in1024.7 mb 0.01 in0.3 mm 0.00 in0.0 mm 0.28 in7.1 mm
10:30 AM 55.6°F13.1°C 54.7°F12.6°C 97% 2.0 mph ENE3.2 kmh ENE 4.0 mph6.4 kmh 30.26 in1024.7 mb 0.01 in0.3 mm 0.00 in0.0 mm 0.28 in7.1 mm
10:25 AM 55.6°F13.1°C 54.7°F12.6°C 97% Calm Calm 4.0 mph6.4 kmh 30.26 in1024.7 mb 0.02 in0.5 mm 0.12 in3.0 mm 0.28 in7.1 mm
10:20 AM 55.6°F13.1°C 54.7°F12.6°C 97% Calm Calm -- 30.26 in1024.7 mb 0.01 in0.3 mm 0.00 in0.0 mm 0.27 in6.9 mm
10:15 AM 55.6°F13.1°C 54.7°F12.6°C 97% Calm Calm 4.0 mph6.4 kmh 30.26 in1024.7 mb 0.01 in0.3 mm 0.00 in0.0 mm 0.27 in6.9 mm
10:10 AM 55.6°F13.1°C 54.7°F12.6°C 97% Calm Calm 5.0 mph8.0 kmh 30.26 in1024.7 mb 0.01 in0.3 mm 0.00 in0.0 mm 0.27 in6.9 mm
10:05 AM 55.6°F13.1°C 54.7°F12.6°C 97% Calm Calm 7.0 mph11.3 kmh 30.26 in1024.7 mb 0.01 in0.3 mm 0.00 in0.0 mm 0.27 in6.9 mm
10:00 AM 55.6°F13.1°C 54.7°F12.6°C 97% Calm Calm 3.0 mph4.8 kmh 30.26 in1024.7 mb 0.01 in0.3 mm 0.00 in0.0 mm 0.27 in6.9 mm
09:55 AM 55.6°F13.1°C 54.7°F12.6°C 97% Calm Calm 3.0 mph4.8 kmh 30.25 in1024.4 mb 0.03 in0.8 mm 0.00 in0.0 mm 0.27 in6.9 mm
09:50 AM 55.6°F13.1°C 54.7°F12.6°C 97% Calm Calm 8.0 mph12.9 kmh 30.25 in1024.4 mb 0.03 in0.8 mm 0.00 in0.0 mm 0.27 in6.9 mm
09:45 AM 55.6°F13.1°C 54.7°F12.6°C 97% Calm Calm 8.0 mph12.9 kmh 30.25 in1024.4 mb 0.03 in0.8 mm 0.00 in0.0 mm 0.27 in6.9 mm
09:40 AM 55.6°F13.1°C 54.7°F12.6°C 97% Calm Calm 7.0 mph11.3 kmh 30.25 in1024.4 mb 0.04 in1.0 mm 0.00 in0.0 mm 0.27 in6.9 mm
09:35 AM 55.6°F13.1°C 54.7°F12.6°C 97% 4.0 mph N6.4 kmh N 4.0 mph6.4 kmh 30.25 in1024.4 mb 0.04 in1.0 mm 0.00 in0.0 mm 0.27 in6.9 mm
09:30 AM 55.6°F13.1°C 54.7°F12.6°C 97% Calm Calm 5.0 mph8.0 kmh 30.25 in1024.4 mb 0.05 in1.3 mm 0.00 in0.0 mm 0.27 in6.9 mm
09:25 AM 55.6°F13.1°C 54.7°F12.6°C 97% 1.0 mph ENE1.6 kmh ENE 5.0 mph8.0 kmh 30.25 in1024.4 mb 0.05 in1.3 mm 0.00 in0.0 mm 0.26 in6.6 mm
09:20 AM 55.6°F13.1°C 54.7°F12.6°C 97% Calm Calm 8.0 mph12.9 kmh 30.25 in1024.4 mb 0.05 in1.3 mm 0.00 in0.0 mm 0.26 in6.6 mm
09:15 AM 55.6°F13.1°C 54.7°F12.6°C 97% Calm Calm 7.0 mph11.3 kmh 30.25 in1024.4 mb 0.05 in1.3 mm 0.00 in0.0 mm 0.26 in6.6 mm
09:10 AM 55.7°F13.2°C 54.8°F12.7°C 97% 7.0 mph E11.3 kmh E 7.0 mph11.3 kmh 30.25 in1024.4 mb 0.05 in1.3 mm 0.00 in0.0 mm 0.26 in6.6 mm
09:05 AM 55.7°F13.2°C 54.8°F12.7°C 97% 1.0 mph NE1.6 kmh NE 3.0 mph4.8 kmh 30.25 in1024.4 mb 0.05 in1.3 mm 0.00 in0.0 mm 0.26 in6.6 mm
09:00 AM 55.7°F13.2°C 54.8°F12.7°C 97% Calm Calm 4.0 mph6.4 kmh 30.25 in1024.4 mb 0.06 in1.5 mm 0.02 in0.5 mm 0.26 in6.6 mm
08:55 AM 55.7°F13.2°C 54.8°F12.7°C 97% Calm Calm 7.0 mph11.3 kmh 30.25 in1024.4 mb 0.04 in1.0 mm 0.00 in0.0 mm 0.24 in6.1 mm
08:50 AM 55.7°F13.2°C 54.8°F12.7°C 97% Calm Calm 1.0 mph1.6 kmh 30.25 in1024.4 mb 0.05 in1.3 mm 0.00 in0.0 mm 0.24 in6.1 mm
08:45 AM 55.7°F13.2°C 54.8°F12.7°C 97% Calm Calm 7.0 mph11.3 kmh 30.25 in1024.4 mb 0.06 in1.5 mm 0.00 in0.0 mm 0.24 in6.1 mm
08:40 AM 55.7°F13.2°C 54.8°F12.7°C 97% Calm Calm 8.0 mph12.9 kmh 30.25 in1024.4 mb 0.07 in1.8 mm 0.00 in0.0 mm 0.23 in5.8 mm
08:35 AM 55.7°F13.2°C 54.8°F12.7°C 97% 1.0 mph ENE1.6 kmh ENE 7.0 mph11.3 kmh 30.25 in1024.4 mb 0.08 in2.0 mm 0.00 in0.0 mm 0.23 in5.8 mm
08:30 AM 55.7°F13.2°C 54.8°F12.7°C 97% Calm Calm 4.0 mph6.4 kmh 30.25 in1024.4 mb 0.09 in2.3 mm 0.00 in0.0 mm 0.22 in5.6 mm
08:25 AM 55.7°F13.2°C 54.8°F12.7°C 97% Calm Calm 3.0 mph4.8 kmh 30.26 in1024.7 mb 0.10 in2.5 mm 0.00 in0.0 mm 0.21 in5.3 mm
08:20 AM 55.7°F13.2°C 54.8°F12.7°C 97% Calm Calm 4.0 mph6.4 kmh 30.26 in1024.7 mb 0.11 in2.8 mm 0.00 in0.0 mm 0.21 in5.3 mm
08:15 AM 55.9°F13.3°C 55.0°F12.8°C 97% 1.0 mph E1.6 kmh E 3.0 mph4.8 kmh 30.26 in1024.7 mb 0.12 in3.0 mm 0.00 in0.0 mm 0.21 in5.3 mm
08:10 AM 55.9°F13.3°C 55.0°F12.8°C 97% Calm Calm 5.0 mph8.0 kmh 30.25 in1024.4 mb 0.12 in3.0 mm 0.00 in0.0 mm 0.21 in5.3 mm
08:05 AM 55.9°F13.3°C 55.0°F12.8°C 97% Calm Calm 1.0 mph1.6 kmh 30.25 in1024.4 mb 0.13 in3.3 mm 0.12 in3.0 mm 0.21 in5.3 mm
08:00 AM 55.9°F13.3°C 55.0°F12.8°C 97% Calm Calm 7.0 mph11.3 kmh 30.25 in1024.4 mb 0.12 in3.0 mm 0.00 in0.0 mm 0.20 in5.1 mm
07:55 AM 55.9°F13.3°C 55.0°F12.8°C 97% Calm Calm 4.0 mph6.4 kmh 30.26 in1024.7 mb 0.12 in3.0 mm 0.12 in3.0 mm 0.20 in5.1 mm
07:50 AM 55.9°F13.3°C 55.0°F12.8°C 97% 2.0 mph ENE3.2 kmh ENE 5.0 mph8.0 kmh 30.26 in1024.7 mb 0.11 in2.8 mm 0.12 in3.0 mm 0.19 in4.8 mm
07:45 AM 55.9°F13.3°C 55.0°F12.8°C 97% Calm Calm 3.0 mph4.8 kmh 30.26 in1024.7 mb 0.10 in2.5 mm 0.24 in6.1 mm 0.18 in4.6 mm
07:40 AM 56.0°F13.3°C 55.1°F12.8°C 97% Calm Calm 2.0 mph3.2 kmh 30.26 in1024.7 mb 0.08 in2.0 mm 0.12 in3.0 mm 0.16 in4.1 mm
07:35 AM 56.0°F13.3°C 55.1°F12.8°C 97% Calm Calm 3.0 mph4.8 kmh 30.26 in1024.7 mb 0.07 in1.8 mm 0.12 in3.0 mm 0.15 in3.8 mm
07:30 AM 56.0°F13.3°C 55.1°F12.8°C 97% Calm Calm 3.0 mph4.8 kmh 30.26 in1024.7 mb 0.06 in1.5 mm 0.24 in6.1 mm 0.13 in3.3 mm
07:25 AM 56.0°F13.3°C 55.1°F12.8°C 97% Calm Calm 3.0 mph4.8 kmh 30.27 in1025.1 mb 0.04 in1.0 mm 0.12 in3.0 mm 0.11 in2.8 mm
07:20 AM 56.0°F13.3°C 55.1°F12.8°C 97% Calm Calm 1.0 mph1.6 kmh 30.27 in1025.1 mb 0.03 in0.8 mm 0.00 in0.0 mm 0.10 in2.5 mm
07:15 AM 56.0°F13.3°C 55.1°F12.8°C 97% Calm Calm 3.0 mph4.8 kmh 30.27 in1025.1 mb 0.03 in0.8 mm 0.00 in0.0 mm 0.09 in2.3 mm
07:10 AM 56.0°F13.3°C 55.1°F12.8°C 97% Calm Calm 5.0 mph8.0 kmh 30.27 in1025.1 mb 0.05 in1.3 mm 0.12 in3.0 mm 0.09 in2.3 mm
07:05 AM 56.0°F13.3°C 55.1°F12.8°C 97% 3.0 mph E4.8 kmh E 3.0 mph4.8 kmh 30.27 in1025.1 mb 0.04 in1.0 mm 0.00 in0.0 mm 0.08 in2.0 mm
07:00 AM 56.0°F13.3°C 55.1°F12.8°C 97% Calm Calm 6.0 mph9.7 kmh 30.27 in1025.1 mb 0.04 in1.0 mm 0.00 in0.0 mm 0.08 in2.0 mm
06:55 AM 56.0°F13.3°C 55.1°F12.8°C 97% Calm Calm 5.0 mph8.0 kmh 30.27 in1025.1 mb 0.05 in1.3 mm 0.00 in0.0 mm 0.08 in2.0 mm
06:50 AM 56.0°F13.3°C 55.1°F12.8°C 97% Calm Calm 2.0 mph3.2 kmh 30.27 in1025.1 mb 0.06 in1.5 mm 0.00 in0.0 mm 0.08 in2.0 mm
06:45 AM 56.0°F13.3°C 55.1°F12.8°C 97% Calm Calm 1.0 mph1.6 kmh 30.27 in1025.1 mb 0.06 in1.5 mm 0.00 in0.0 mm 0.08 in2.0 mm
06:40 AM 56.0°F13.3°C 55.1°F12.8°C 97% Calm Calm 2.0 mph3.2 kmh 30.27 in1025.1 mb 0.06 in1.5 mm 0.00 in0.0 mm 0.08 in2.0 mm
06:35 AM 56.0°F13.3°C 55.1°F12.8°C 97% Calm Calm 6.0 mph9.7 kmh 30.27 in1025.1 mb 0.06 in1.5 mm 0.12 in3.0 mm 0.08 in2.0 mm
06:30 AM 56.0°F13.3°C 54.8°F12.7°C 96% Calm Calm 4.0 mph6.4 kmh 30.27 in1025.1 mb 0.05 in1.3 mm 0.00 in0.0 mm 0.07 in1.8 mm
06:25 AM 55.9°F13.3°C 54.7°F12.6°C 96% Calm Calm 6.0 mph9.7 kmh 30.28 in1025.4 mb 0.05 in1.3 mm 0.00 in0.0 mm 0.07 in1.8 mm
06:20 AM 55.9°F13.3°C 54.7°F12.6°C 96% Calm Calm 3.0 mph4.8 kmh 30.28 in1025.4 mb 0.05 in1.3 mm 0.12 in3.0 mm 0.07 in1.8 mm
06:15 AM 55.9°F13.3°C 54.7°F12.6°C 96% Calm Calm 7.0 mph11.3 kmh 30.28 in1025.4 mb 0.04 in1.0 mm 0.24 in6.1 mm 0.06 in1.5 mm
06:10 AM 55.9°F13.3°C 54.7°F12.6°C 96% Calm Calm 7.0 mph11.3 kmh 30.28 in1025.4 mb 0.02 in0.5 mm 0.00 in0.0 mm 0.04 in1.0 mm
06:05 AM 55.9°F13.3°C 54.7°F12.6°C 96% 2.0 mph NE3.2 kmh NE 5.0 mph8.0 kmh 30.28 in1025.4 mb 0.02 in0.5 mm 0.00 in0.0 mm 0.04 in1.0 mm
06:00 AM 55.9°F13.3°C 54.7°F12.6°C 96% Calm Calm 4.0 mph6.4 kmh 30.28 in1025.4 mb 0.02 in0.5 mm 0.01 in0.3 mm 0.04 in1.0 mm
05:55 AM 55.9°F13.3°C 54.7°F12.6°C 96% Calm Calm 3.0 mph4.8 kmh 30.28 in1025.4 mb 0.01 in0.3 mm 0.12 in3.0 mm 0.03 in0.8 mm
05:50 AM 55.9°F13.3°C 54.7°F12.6°C 96% Calm Calm 4.0 mph6.4 kmh 30.28 in1025.4 mb 0.00 in0.0 mm 0.00 in0.0 mm 0.02 in0.5 mm
05:45 AM 55.9°F13.3°C 54.7°F12.6°C 96% Calm Calm 6.0 mph9.7 kmh 30.28 in1025.4 mb 0.00 in0.0 mm 0.00 in0.0 mm 0.02 in0.5 mm
05:40 AM 55.7°F13.2°C 54.5°F12.5°C 96% 3.0 mph E4.8 kmh E 6.0 mph9.7 kmh 30.29 in1025.7 mb 0.01 in0.3 mm 0.00 in0.0 mm 0.02 in0.5 mm
05:35 AM 55.7°F13.2°C 54.5°F12.5°C 96% 2.0 mph N3.2 kmh N 6.0 mph9.7 kmh 30.29 in1025.7 mb 0.01 in0.3 mm 0.00 in0.0 mm 0.02 in0.5 mm
05:30 AM 55.7°F13.2°C 54.5°F12.5°C 96% 3.0 mph N4.8 kmh N 6.0 mph9.7 kmh 30.29 in1025.7 mb 0.01 in0.3 mm 0.00 in0.0 mm 0.02 in0.5 mm
05:25 AM 55.6°F13.1°C 54.4°F12.4°C 96% 2.0 mph ENE3.2 kmh ENE 5.0 mph8.0 kmh 30.29 in1025.7 mb 0.01 in0.3 mm 0.00 in0.0 mm 0.02 in0.5 mm
05:20 AM 55.6°F13.1°C 54.4°F12.4°C 96% Calm Calm 3.0 mph4.8 kmh 30.29 in1025.7 mb 0.01 in0.3 mm 0.00 in0.0 mm 0.02 in0.5 mm
05:15 AM 55.6°F13.1°C 54.4°F12.4°C 96% Calm Calm 4.0 mph6.4 kmh 30.29 in1025.7 mb 0.01 in0.3 mm 0.00 in0.0 mm 0.02 in0.5 mm
05:10 AM 55.6°F13.1°C 54.4°F12.4°C 96% Calm Calm 5.0 mph8.0 kmh 30.29 in1025.7 mb 0.01 in0.3 mm 0.00 in0.0 mm 0.02 in0.5 mm
05:05 AM 55.4°F13.0°C 54.2°F12.3°C 96% Calm Calm 3.0 mph4.8 kmh 30.29 in1025.7 mb 0.01 in0.3 mm 0.00 in0.0 mm 0.02 in0.5 mm
05:00 AM 55.4°F13.0°C 54.2°F12.3°C 96% 2.0 mph E3.2 kmh E 6.0 mph9.7 kmh 30.29 in1025.7 mb 0.02 in0.5 mm 0.00 in0.0 mm 0.02 in0.5 mm
04:55 AM 55.4°F13.0°C 54.2°F12.3°C 96% 1.0 mph NE1.6 kmh NE 2.0 mph3.2 kmh 30.30 in1026.1 mb 0.02 in0.5 mm 0.00 in0.0 mm 0.02 in0.5 mm
04:50 AM 55.3°F12.9°C 54.1°F12.3°C 96% Calm Calm 3.0 mph4.8 kmh 30.30 in1026.1 mb 0.02 in0.5 mm 0.00 in0.0 mm 0.02 in0.5 mm
04:45 AM 55.3°F12.9°C 54.1°F12.3°C 96% 2.0 mph NE3.2 kmh NE 3.0 mph4.8 kmh 30.30 in1026.1 mb 0.03 in0.8 mm 0.12 in3.0 mm 0.02 in0.5 mm
04:40 AM 55.1°F12.8°C 53.9°F12.2°C 96% 2.0 mph N3.2 kmh N 2.0 mph3.2 kmh 30.30 in1026.1 mb 0.02 in0.5 mm 0.00 in0.0 mm 0.01 in0.3 mm
04:35 AM 55.1°F12.8°C 53.9°F12.2°C 96% Calm Calm 4.0 mph6.4 kmh 30.30 in1026.1 mb 0.03 in0.8 mm 0.00 in0.0 mm 0.01 in0.3 mm
04:30 AM 55.1°F12.8°C 53.9°F12.2°C 96% Calm Calm 2.0 mph3.2 kmh 30.30 in1026.1 mb 0.03 in0.8 mm 0.00 in0.0 mm 0.01 in0.3 mm
04:25 AM 55.1°F12.8°C 53.9°F12.2°C 96% Calm Calm 5.0 mph8.0 kmh 30.30 in1026.1 mb 0.04 in1.0 mm 0.00 in0.0 mm 0.01 in0.3 mm
04:20 AM 55.0°F12.8°C 53.8°F12.1°C 96% Calm Calm 5.0 mph8.0 kmh 30.30 in1026.1 mb 0.05 in1.3 mm 0.00 in0.0 mm 0.01 in0.3 mm
04:15 AM 55.0°F12.8°C 53.5°F11.9°C 95% 2.0 mph ENE3.2 kmh ENE 5.0 mph8.0 kmh 30.30 in1026.1 mb 0.05 in1.3 mm 0.00 in0.0 mm 0.01 in0.3 mm
04:10 AM 54.8°F12.7°C 53.3°F11.8°C 95% Calm Calm 5.0 mph8.0 kmh 30.30 in1026.1 mb 0.06 in1.5 mm 0.00 in0.0 mm 0.01 in0.3 mm
04:05 AM 54.8°F12.7°C 53.3°F11.8°C 95% 2.0 mph ENE3.2 kmh ENE 5.0 mph8.0 kmh 30.30 in1026.1 mb 0.07 in1.8 mm 0.12 in3.0 mm 0.01 in0.3 mm
04:00 AM 54.8°F12.7°C 53.3°F11.8°C 95% Calm Calm 4.0 mph6.4 kmh 30.30 in1026.1 mb 0.06 in1.5 mm 0.00 in0.0 mm 0.11 in2.8 mm
03:55 AM 54.7°F12.6°C 53.2°F11.8°C 95% Calm Calm 5.0 mph8.0 kmh 30.30 in1026.1 mb 0.06 in1.5 mm 0.00 in0.0 mm 0.11 in2.8 mm
03:50 AM 54.7°F12.6°C 53.2°F11.8°C 95% Calm Calm 2.0 mph3.2 kmh 30.30 in1026.1 mb 0.06 in1.5 mm 0.12 in3.0 mm 0.11 in2.8 mm
03:45 AM 54.7°F12.6°C 53.2°F11.8°C 95% 1.0 mph E1.6 kmh E 7.0 mph11.3 kmh 30.30 in1026.1 mb 0.05 in1.3 mm 0.00 in0.0 mm 0.10 in2.5 mm
03:40 AM 54.7°F12.6°C 53.2°F11.8°C 95% 4.0 mph ESE6.4 kmh ESE 5.0 mph8.0 kmh 30.31 in1026.4 mb 0.05 in1.3 mm 0.12 in3.0 mm 0.10 in2.5 mm
03:35 AM 54.5°F12.5°C 53.0°F11.7°C 95% Calm Calm 2.0 mph3.2 kmh 30.31 in1026.4 mb 0.04 in1.0 mm 0.00 in0.0 mm 0.09 in2.3 mm
03:30 AM 54.5°F12.5°C 53.0°F11.7°C 95% Calm Calm 5.0 mph8.0 kmh 30.31 in1026.4 mb 0.04 in1.0 mm 0.00 in0.0 mm 0.09 in2.3 mm
03:25 AM 54.5°F12.5°C 53.0°F11.7°C 95% 2.0 mph ESE3.2 kmh ESE 5.0 mph8.0 kmh 30.31 in1026.4 mb 0.04 in1.0 mm 0.12 in3.0 mm 0.08 in2.0 mm
03:20 AM 54.5°F12.5°C 53.0°F11.7°C 95% 1.0 mph E1.6 kmh E 6.0 mph9.7 kmh 30.31 in1026.4 mb 0.03 in0.8 mm 0.00 in0.0 mm 0.07 in1.8 mm
03:15 AM 54.5°F12.5°C 53.0°F11.7°C 95% 1.0 mph NW1.6 kmh NW 7.0 mph11.3 kmh 30.31 in1026.4 mb 0.03 in0.8 mm 0.12 in3.0 mm 0.07 in1.8 mm
03:10 AM 54.5°F12.5°C 53.0°F11.7°C 95% 2.0 mph N3.2 kmh N 4.0 mph6.4 kmh 30.32 in1026.8 mb 0.02 in0.5 mm 0.12 in3.0 mm 0.06 in1.5 mm
03:05 AM 54.4°F12.4°C 52.9°F11.6°C 95% Calm Calm 5.0 mph8.0 kmh 30.32 in1026.8 mb 0.01 in0.3 mm 0.00 in0.0 mm 0.05 in1.3 mm
03:00 AM 54.4°F12.4°C 52.9°F11.6°C 95% Calm Calm 5.0 mph8.0 kmh 30.32 in1026.8 mb 0.02 in0.5 mm 0.00 in0.0 mm 0.05 in1.3 mm
02:55 AM 54.4°F12.4°C 52.9°F11.6°C 95% 1.0 mph E1.6 kmh E 6.0 mph9.7 kmh 30.33 in1027.1 mb 0.02 in0.5 mm 0.00 in0.0 mm 0.05 in1.3 mm
02:50 AM 54.4°F12.4°C 52.9°F11.6°C 95% Calm Calm 4.0 mph6.4 kmh 30.33 in1027.1 mb 0.02 in0.5 mm 0.00 in0.0 mm 0.05 in1.3 mm
02:45 AM 54.4°F12.4°C 52.7°F11.5°C 94% Calm Calm 5.0 mph8.0 kmh 30.33 in1027.1 mb 0.02 in0.5 mm 0.00 in0.0 mm 0.05 in1.3 mm
02:40 AM 54.4°F12.4°C 52.7°F11.5°C 94% 1.0 mph ENE1.6 kmh ENE 6.0 mph9.7 kmh 30.33 in1027.1 mb 0.02 in0.5 mm 0.00 in0.0 mm 0.05 in1.3 mm
02:35 AM 54.2°F12.3°C 52.5°F11.4°C 94% 1.0 mph NE1.6 kmh NE 7.0 mph11.3 kmh 30.33 in1027.1 mb 0.02 in0.5 mm 0.00 in0.0 mm 0.05 in1.3 mm
02:30 AM 54.2°F12.3°C 52.5°F11.4°C 94% Calm Calm 3.0 mph4.8 kmh 30.33 in1027.1 mb 0.02 in0.5 mm 0.12 in3.0 mm 0.05 in1.3 mm
02:25 AM 54.2°F12.3°C 52.5°F11.4°C 94% Calm Calm 1.0 mph1.6 kmh 30.33 in1027.1 mb 0.01 in0.3 mm 0.00 in0.0 mm 0.04 in1.0 mm
02:20 AM 54.2°F12.3°C 52.5°F11.4°C 94% 2.0 mph E3.2 kmh E 7.0 mph11.3 kmh 30.33 in1027.1 mb 0.01 in0.3 mm 0.00 in0.0 mm 0.04 in1.0 mm
02:15 AM 54.1°F12.3°C 52.4°F11.3°C 94% Calm Calm 8.0 mph12.9 kmh 30.33 in1027.1 mb 0.01 in0.3 mm 0.00 in0.0 mm 0.04 in1.0 mm
02:10 AM 54.1°F12.3°C 52.4°F11.3°C 94% Calm Calm 5.0 mph8.0 kmh 30.33 in1027.1 mb 0.01 in0.3 mm 0.00 in0.0 mm 0.04 in1.0 mm
02:05 AM 54.1°F12.3°C 52.4°F11.3°C 94% Calm Calm 5.0 mph8.0 kmh 30.33 in1027.1 mb 0.01 in0.3 mm 0.12 in3.0 mm 0.04 in1.0 mm
02:00 AM 54.1°F12.3°C 52.4°F11.3°C 94% 1.0 mph ENE1.6 kmh ENE 2.0 mph3.2 kmh 30.33 in1027.1 mb 0.00 in0.0 mm 0.00 in0.0 mm 0.03 in0.8 mm
01:55 AM 54.1°F12.3°C 52.4°F11.3°C 94% Calm Calm 5.0 mph8.0 kmh 30.33 in1027.1 mb 0.00 in0.0 mm 0.00 in0.0 mm 0.03 in0.8 mm
01:50 AM 53.9°F12.2°C 51.9°F11.1°C 93% Calm Calm 5.0 mph8.0 kmh 30.33 in1027.1 mb 0.00 in0.0 mm 0.00 in0.0 mm 0.03 in0.8 mm
01:45 AM 53.9°F12.2°C 51.9°F11.1°C 93% Calm Calm 4.0 mph6.4 kmh 30.33 in1027.1 mb 0.00 in0.0 mm 0.00 in0.0 mm 0.03 in0.8 mm
01:40 AM 53.9°F12.2°C 51.9°F11.1°C 93% Calm Calm 1.0 mph1.6 kmh 30.33 in1027.1 mb 0.00 in0.0 mm 0.00 in0.0 mm 0.03 in0.8 mm
01:35 AM 53.9°F12.2°C 51.9°F11.1°C 93% Calm Calm 3.0 mph4.8 kmh 30.33 in1027.1 mb 0.00 in0.0 mm 0.00 in0.0 mm 0.03 in0.8 mm
01:30 AM 53.9°F12.2°C 51.9°F11.1°C 93% 1.0 mph E1.6 kmh E 5.0 mph8.0 kmh 30.33 in1027.1 mb 0.00 in0.0 mm 0.00 in0.0 mm 0.03 in0.8 mm
01:25 AM 53.9°F12.2°C 51.9°F11.1°C 93% Calm Calm 3.0 mph4.8 kmh 30.33 in1027.1 mb 0.00 in0.0 mm 0.00 in0.0 mm 0.03 in0.8 mm
01:20 AM 53.8°F12.1°C 51.8°F11.0°C 93% Calm Calm 3.0 mph4.8 kmh 30.33 in1027.1 mb 0.00 in0.0 mm 0.00 in0.0 mm 0.03 in0.8 mm
01:15 AM 53.8°F12.1°C 51.8°F11.0°C 93% 1.0 mph NE1.6 kmh NE 3.0 mph4.8 kmh 30.33 in1027.1 mb 0.00 in0.0 mm 0.00 in0.0 mm 0.03 in0.8 mm
01:10 AM 53.8°F12.1°C 51.8°F11.0°C 93% Calm Calm 1.0 mph1.6 kmh 30.34 in1027.4 mb 0.00 in0.0 mm 0.00 in0.0 mm 0.03 in0.8 mm
01:05 AM 53.8°F12.1°C 51.5°F10.8°C 92% Calm Calm 1.0 mph1.6 kmh 30.34 in1027.4 mb 0.00 in0.0 mm 0.00 in0.0 mm 0.03 in0.8 mm
01:00 AM 53.8°F12.1°C 51.5°F10.8°C 92% Calm Calm 3.0 mph4.8 kmh 30.34 in1027.4 mb 0.00 in0.0 mm 0.00 in0.0 mm 0.03 in0.8 mm
12:55 AM 53.8°F12.1°C 51.5°F10.8°C 92% 3.0 mph NE4.8 kmh NE 3.0 mph4.8 kmh 30.34 in1027.4 mb 0.00 in0.0 mm 0.00 in0.0 mm 0.03 in0.8 mm
12:50 AM 53.8°F12.1°C 51.5°F10.8°C 92% Calm Calm 5.0 mph8.0 kmh 30.34 in1027.4 mb 0.00 in0.0 mm 0.00 in0.0 mm 0.03 in0.8 mm
12:45 AM 53.8°F12.1°C 51.5°F10.8°C 92% Calm Calm 1.0 mph1.6 kmh 30.34 in1027.4 mb 0.00 in0.0 mm 0.00 in0.0 mm 0.03 in0.8 mm
12:40 AM 53.8°F12.1°C 51.2°F10.7°C 91% Calm Calm 3.0 mph4.8 kmh 30.34 in1027.4 mb 0.00 in0.0 mm 0.00 in0.0 mm 0.03 in0.8 mm
12:35 AM 53.8°F12.1°C 51.2°F10.7°C 91% Calm Calm 1.0 mph1.6 kmh 30.34 in1027.4 mb 0.01 in0.3 mm 0.00 in0.0 mm 0.03 in0.8 mm
12:30 AM 53.8°F12.1°C 51.2°F10.7°C 91% Calm Calm 1.0 mph1.6 kmh 30.34 in1027.4 mb 0.01 in0.3 mm 0.00 in0.0 mm 0.03 in0.8 mm
12:25 AM 53.8°F12.1°C 51.2°F10.7°C 91% Calm Calm 1.0 mph1.6 kmh 30.35 in1027.8 mb 0.01 in0.3 mm 0.00 in0.0 mm 0.03 in0.8 mm
12:20 AM 53.8°F12.1°C 51.2°F10.7°C 91% Calm Calm 4.0 mph6.4 kmh 30.35 in1027.8 mb 0.01 in0.3 mm 0.00 in0.0 mm 0.03 in0.8 mm
12:15 AM 53.8°F12.1°C 50.9°F10.5°C 90% Calm Calm -- 30.35 in1027.8 mb 0.01 in0.3 mm 0.00 in0.0 mm 0.03 in0.8 mm
12:10 AM 53.8°F12.1°C 50.9°F10.5°C 90% Calm Calm 5.0 mph8.0 kmh 30.34 in1027.4 mb 0.01 in0.3 mm 0.00 in0.0 mm 0.03 in0.8 mm
12:05 AM 53.9°F12.2°C 51.0°F10.6°C 90% Calm Calm 1.0 mph1.6 kmh 30.34 in1027.4 mb 0.01 in0.3 mm 0.00 in0.0 mm 0.03 in0.8 mm
12:00 AM 53.9°F12.2°C 51.0°F10.6°C 90% Calm Calm 3.0 mph4.8 kmh 30.34 in1027.4 mb 0.02 in0.5 mm 0.00 in0.0 mm 0.03 in0.8 mm